createdAt,value
2019-01-24T00:02:07.654Z,5.80
2019-01-24T00:04:34.903Z,7.33
2019-01-24T00:07:02.211Z,6.47
2019-01-24T00:09:29.477Z,6.60
2019-01-24T00:11:56.824Z,6.30
2019-01-24T00:14:24.205Z,6.23
2019-01-24T00:16:51.507Z,6.80
2019-01-24T00:19:18.764Z,6.00
2019-01-24T00:21:46.015Z,7.03
2019-01-24T00:24:13.265Z,5.70
2019-01-24T00:26:40.484Z,6.63
2019-01-24T00:29:07.872Z,6.23
2019-01-24T00:31:35.178Z,6.03
2019-01-24T00:34:02.424Z,5.93
2019-01-24T00:36:29.789Z,6.90
2019-01-24T00:38:57.120Z,6.57
2019-01-24T00:41:24.576Z,5.80
2019-01-24T00:43:51.914Z,6.10
2019-01-24T00:46:19.475Z,6.97
2019-01-24T00:48:46.723Z,5.77
2019-01-24T00:51:14.147Z,5.60
2019-01-24T00:53:41.546Z,6.00
2019-01-24T00:56:08.864Z,6.57
2019-01-24T00:58:36.299Z,5.87
2019-01-24T01:01:03.691Z,6.43
2019-01-24T01:03:31.043Z,6.10
2019-01-24T01:05:58.350Z,6.50
2019-01-24T01:08:25.612Z,5.57
2019-01-24T01:10:52.921Z,5.63
2019-01-24T01:13:20.480Z,6.43
2019-01-24T01:15:47.799Z,4.93
2019-01-24T01:18:15.119Z,4.80
2019-01-24T01:20:42.467Z,5.07
2019-01-24T01:23:09.920Z,5.57
2019-01-24T01:25:37.141Z,4.87
2019-01-24T01:28:06.055Z,5.33
2019-01-24T01:30:33.395Z,6.63
2019-01-24T01:33:00.740Z,6.53
2019-01-24T01:35:28.045Z,5.87
2019-01-24T01:37:55.355Z,6.50
2019-01-24T01:40:22.774Z,5.73
2019-01-24T01:42:50.028Z,5.57
2019-01-24T01:45:18.891Z,5.90
2019-01-24T01:47:46.368Z,5.77
2019-01-24T01:50:15.670Z,5.23
2019-01-24T01:52:43.008Z,5.17
2019-01-24T01:55:10.443Z,5.00
2019-01-24T01:57:37.655Z,5.73
2019-01-24T02:00:07.386Z,5.20
2019-01-24T02:02:34.670Z,5.27
2019-01-24T02:05:02.019Z,6.20
2019-01-24T02:07:29.320Z,5.63
2019-01-24T02:09:56.878Z,5.97
2019-01-24T02:12:24.224Z,5.60
2019-01-24T02:14:51.467Z,5.20
2019-01-24T02:17:18.984Z,5.17
2019-01-24T02:19:46.301Z,5.37
2019-01-24T02:22:13.608Z,5.73
2019-01-24T02:24:40.870Z,5.50
2019-01-24T02:27:08.315Z,3.87
2019-01-24T02:29:35.538Z,5.73
2019-01-24T02:32:02.992Z,5.67
2019-01-24T02:34:30.348Z,5.20
2019-01-24T02:36:57.794Z,5.15
2019-01-24T02:39:25.139Z,5.63
2019-01-24T02:41:52.551Z,5.30
2019-01-24T02:44:19.799Z,5.20
2019-01-24T02:46:47.051Z,5.00
2019-01-24T02:49:14.376Z,5.42
2019-01-24T02:51:41.734Z,5.87
2019-01-24T02:54:09.044Z,4.83
2019-01-24T02:56:36.448Z,5.00
2019-01-24T02:59:03.787Z,6.43
2019-01-24T03:01:31.040Z,4.40
2019-01-24T03:03:58.372Z,5.13
2019-01-24T03:06:25.690Z,5.17
2019-01-24T03:08:53.109Z,6.23
2019-01-24T03:11:20.529Z,5.87
2019-01-24T03:13:47.923Z,5.53
2019-01-24T03:16:15.269Z,5.47
2019-01-24T03:18:42.605Z,6.27
2019-01-24T03:21:09.959Z,5.50
2019-01-24T03:23:37.370Z,6.07
2019-01-24T03:26:04.730Z,5.37
2019-01-24T03:28:32.075Z,5.60
2019-01-24T03:30:59.372Z,6.23
2019-01-24T03:33:26.836Z,6.13
2019-01-24T03:35:54.091Z,5.73
2019-01-24T03:38:21.549Z,6.67
2019-01-24T03:40:48.763Z,6.23
2019-01-24T03:43:15.975Z,6.37
2019-01-24T03:45:43.230Z,5.73
2019-01-24T03:48:10.438Z,6.27
2019-01-24T03:50:37.736Z,6.47
2019-01-24T03:53:05.151Z,5.37
2019-01-24T03:55:32.376Z,5.93
2019-01-24T03:57:59.632Z,6.27
2019-01-24T04:00:26.880Z,7.53
2019-01-24T04:02:54.216Z,6.30
2019-01-24T04:05:21.841Z,6.27
2019-01-24T04:07:49.226Z,6.03
2019-01-24T04:10:18.923Z,6.23
2019-01-24T04:12:46.222Z,6.23
2019-01-24T04:15:18.809Z,6.40
2019-01-24T04:17:46.161Z,6.60
2019-01-24T04:20:13.799Z,6.53
2019-01-24T04:22:41.187Z,7.27
2019-01-24T04:25:08.794Z,7.90
2019-01-24T04:27:36.118Z,8.23
2019-01-24T04:30:05.859Z,7.17
2019-01-24T04:32:33.188Z,6.93
2019-01-24T04:35:00.548Z,7.23
2019-01-24T04:37:27.868Z,7.90
2019-01-24T04:39:55.362Z,7.73
2019-01-24T04:42:22.599Z,7.70
2019-01-24T04:44:49.929Z,8.33
2019-01-24T04:47:17.355Z,8.67
2019-01-24T04:49:44.732Z,9.80
2019-01-24T04:52:12.141Z,9.90
2019-01-24T04:54:39.420Z,10.33
2019-01-24T04:57:06.794Z,10.73
2019-01-24T04:59:34.150Z,11.17
2019-01-24T05:02:01.463Z,11.17
2019-01-24T05:04:28.870Z,11.87
2019-01-24T05:06:56.214Z,20.27
2019-01-24T05:09:23.855Z,14.63
2019-01-24T05:11:51.307Z,14.70
2019-01-24T05:14:18.715Z,13.70
2019-01-24T05:16:46.299Z,12.70
2019-01-24T05:19:13.523Z,12.13
2019-01-24T05:21:41.155Z,11.27
2019-01-24T05:24:08.405Z,11.60
2019-01-24T05:26:35.720Z,11.73
2019-01-24T05:29:03.168Z,12.17
2019-01-24T05:31:30.496Z,11.43
2019-01-24T05:33:57.840Z,11.60
2019-01-24T05:36:25.071Z,12.17
2019-01-24T05:38:52.204Z,11.00
2019-01-24T05:41:19.451Z,10.53
2019-01-24T05:43:46.791Z,10.87
2019-01-24T05:46:14.110Z,10.47
2019-01-24T05:48:41.335Z,10.97
2019-01-24T05:51:08.616Z,10.87
2019-01-24T05:53:36.031Z,11.10
2019-01-24T05:56:03.307Z,11.23
2019-01-24T05:58:30.753Z,9.83
2019-01-24T06:00:58.443Z,11.30
2019-01-24T06:03:25.767Z,11.03
2019-01-24T06:05:53.287Z,10.03
2019-01-24T06:08:20.568Z,10.23
2019-01-24T06:10:47.878Z,9.33
2019-01-24T06:13:15.106Z,10.30
2019-01-24T06:15:42.471Z,9.33
2019-01-24T06:18:09.797Z,9.73
2019-01-24T06:20:37.260Z,9.40
2019-01-24T06:23:04.700Z,10.03
2019-01-24T06:25:32.338Z,9.97
2019-01-24T06:27:59.545Z,10.23
2019-01-24T06:30:26.787Z,9.57
2019-01-24T06:32:54.132Z,9.67
2019-01-24T06:35:21.350Z,9.37
2019-01-24T06:37:48.963Z,9.07
2019-01-24T06:40:16.322Z,9.47
2019-01-24T06:42:43.730Z,8.80
2019-01-24T06:45:13.583Z,9.10
2019-01-24T06:47:40.827Z,8.40
2019-01-24T06:50:09.936Z,8.93
2019-01-24T06:52:37.184Z,8.87
2019-01-24T06:55:05.131Z,8.23
2019-01-24T06:57:32.509Z,8.90
2019-01-24T06:59:59.863Z,9.27
2019-01-24T07:02:27.080Z,9.67
2019-01-24T07:04:54.415Z,9.13
2019-01-24T07:07:21.667Z,8.43
2019-01-24T07:09:48.892Z,9.10
2019-01-24T07:12:16.131Z,9.80
2019-01-24T07:14:43.584Z,9.47
2019-01-24T07:17:10.904Z,9.00
2019-01-24T07:19:38.442Z,8.70
2019-01-24T07:22:05.902Z,9.20
2019-01-24T07:24:33.226Z,9.77
2019-01-24T07:27:00.570Z,8.07
2019-01-24T07:29:27.827Z,9.70
2019-01-24T07:31:55.084Z,8.40
2019-01-24T07:34:22.395Z,8.60
2019-01-24T07:36:49.788Z,10.20
2019-01-24T07:39:17.202Z,9.00
2019-01-24T07:41:44.551Z,8.23
2019-01-24T07:44:11.888Z,9.50
2019-01-24T07:46:39.224Z,8.97
2019-01-24T07:49:06.568Z,9.40
2019-01-24T07:51:33.824Z,8.70
2019-01-24T07:54:01.028Z,9.03
2019-01-24T07:56:28.440Z,10.20
2019-01-24T07:58:55.691Z,9.77
2019-01-24T08:01:22.932Z,9.30
2019-01-24T08:03:50.571Z,9.27
2019-01-24T08:06:17.775Z,9.90
2019-01-24T08:08:45.020Z,8.83
2019-01-24T08:11:12.248Z,9.30
2019-01-24T08:13:39.486Z,8.97
2019-01-24T08:16:06.809Z,10.00
2019-01-24T08:18:34.032Z,10.20
2019-01-24T08:21:01.407Z,10.03
2019-01-24T08:23:28.627Z,11.33
2019-01-24T08:25:55.930Z,11.63
2019-01-24T08:28:23.184Z,11.93
2019-01-24T08:30:50.496Z,11.77
2019-01-24T08:33:17.818Z,11.57
2019-01-24T08:35:45.182Z,12.20
2019-01-24T08:38:12.506Z,12.87
2019-01-24T08:40:39.811Z,12.17
2019-01-24T08:43:07.160Z,14.43
2019-01-24T08:45:34.704Z,14.07
2019-01-24T08:48:02.015Z,12.60
2019-01-24T08:50:29.322Z,13.83
2019-01-24T08:52:56.572Z,13.23
2019-01-24T08:55:42.937Z,14.47
2019-01-24T08:58:10.450Z,13.80
2019-01-24T09:00:37.687Z,13.57
2019-01-24T09:03:05.052Z,14.03
2019-01-24T09:05:32.415Z,14.63
2019-01-24T09:07:59.648Z,13.90
2019-01-24T09:10:32.359Z,14.43
2019-01-24T09:12:59.983Z,14.00
2019-01-24T09:15:27.552Z,14.33
2019-01-24T09:17:54.896Z,14.00
2019-01-24T09:20:22.299Z,13.60
2019-01-24T09:22:55.208Z,14.47
2019-01-24T09:25:18.665Z,13.57
2019-01-24T09:27:46.017Z,13.53
2019-01-24T09:30:18.791Z,14.77
2019-01-24T09:32:46.159Z,13.80
2019-01-24T09:35:13.944Z,13.93
2019-01-24T09:37:41.236Z,13.87
2019-01-24T09:40:10.272Z,14.17
2019-01-24T09:42:37.496Z,13.67
2019-01-24T09:45:08.067Z,13.20
2019-01-24T09:47:35.399Z,14.10
2019-01-24T09:50:04.536Z,13.93
2019-01-24T09:52:31.853Z,13.10
2019-01-24T09:54:59.167Z,15.57
2019-01-24T09:57:26.528Z,14.17
2019-01-24T09:59:53.945Z,14.43
2019-01-24T10:02:21.296Z,14.40
2019-01-24T10:04:48.668Z,14.03
2019-01-24T10:07:16.261Z,14.60
2019-01-24T10:09:43.613Z,15.10
2019-01-24T10:12:10.935Z,16.57
2019-01-24T10:14:38.166Z,13.77
2019-01-24T10:17:05.607Z,15.27
2019-01-24T10:19:32.824Z,13.60
2019-01-24T10:22:00.072Z,14.37
2019-01-24T10:24:27.401Z,13.10
2019-01-24T10:26:54.745Z,14.17
2019-01-24T10:29:22.163Z,13.13
2019-01-24T10:31:49.520Z,13.23
2019-01-24T10:34:16.840Z,14.90
2019-01-24T10:36:44.306Z,14.20
2019-01-24T10:39:11.612Z,14.63
2019-01-24T10:41:39.006Z,14.97
2019-01-24T10:44:06.260Z,13.77
2019-01-24T10:46:33.589Z,12.93
2019-01-24T10:49:00.927Z,14.80
2019-01-24T10:51:28.625Z,13.67
2019-01-24T10:53:55.872Z,14.57
2019-01-24T10:56:23.084Z,14.73
2019-01-24T10:58:50.439Z,13.87
2019-01-24T11:01:17.896Z,14.13
2019-01-24T11:03:45.231Z,13.17
2019-01-24T11:06:12.463Z,12.83
2019-01-24T11:08:39.796Z,14.07
2019-01-24T11:11:07.159Z,14.47
2019-01-24T11:13:34.468Z,14.13
2019-01-24T11:16:01.731Z,13.60
2019-01-24T11:18:29.055Z,14.13
2019-01-24T11:20:56.267Z,14.33
2019-01-24T11:23:23.525Z,14.63
2019-01-24T11:25:50.951Z,13.27
2019-01-24T11:28:18.288Z,14.27
2019-01-24T11:30:45.600Z,15.57
2019-01-24T11:33:12.844Z,12.23
2019-01-24T11:35:40.359Z,13.30
2019-01-24T11:38:07.836Z,13.80
2019-01-24T11:40:35.194Z,13.93
2019-01-24T11:43:02.523Z,13.40
2019-01-24T11:45:32.292Z,12.67
2019-01-24T11:47:59.803Z,10.97
2019-01-24T11:50:27.144Z,13.23
2019-01-24T11:52:54.372Z,11.83
2019-01-24T11:55:21.704Z,12.30
2019-01-24T11:57:49.244Z,12.40
2019-01-24T12:00:19.079Z,12.23
2019-01-24T12:02:46.464Z,12.00
2019-01-24T12:05:13.882Z,11.67
2019-01-24T12:07:41.095Z,12.40
2019-01-24T12:10:11.348Z,11.77
2019-01-24T12:12:38.766Z,11.33
2019-01-24T12:15:08.220Z,12.57
2019-01-24T12:17:35.668Z,12.17
2019-01-24T12:20:04.200Z,11.63
2019-01-24T12:22:31.887Z,11.50
2019-01-24T12:24:59.443Z,10.87
2019-01-24T12:27:27.082Z,10.70
2019-01-24T12:29:54.711Z,10.03
2019-01-24T12:32:22.457Z,9.93
2019-01-24T12:34:50.349Z,10.27
2019-01-24T12:37:17.841Z,10.00
2019-01-24T12:39:45.521Z,9.40
2019-01-24T12:42:13.146Z,10.17
2019-01-24T12:44:40.826Z,10.23
2019-01-24T12:47:08.656Z,9.53
2019-01-24T12:49:36.590Z,9.43
2019-01-24T12:52:04.183Z,7.87
2019-01-24T12:54:31.915Z,9.60
2019-01-24T12:56:59.824Z,9.00
2019-01-24T12:59:27.680Z,9.63
2019-01-24T13:01:55.297Z,8.50
2019-01-24T13:04:22.942Z,9.40
2019-01-24T13:06:50.789Z,8.63
2019-01-24T13:09:18.624Z,9.57
2019-01-24T13:11:46.388Z,8.73
2019-01-24T13:14:14.012Z,6.87
2019-01-24T13:16:41.754Z,8.70
2019-01-24T13:19:09.447Z,8.10
2019-01-24T13:21:37.138Z,8.00
2019-01-24T13:24:04.987Z,8.77
2019-01-24T13:26:32.302Z,7.87
2019-01-24T13:29:00.047Z,7.73
2019-01-24T13:31:27.682Z,7.60
2019-01-24T13:33:55.356Z,7.80
2019-01-24T13:36:35.113Z,7.47
2019-01-24T13:39:07.884Z,7.10
2019-01-24T13:41:35.261Z,7.93
2019-01-24T13:44:03.043Z,6.77
2019-01-24T13:46:30.531Z,7.27
2019-01-24T13:48:58.254Z,6.93
2019-01-24T13:51:26.080Z,7.53
2019-01-24T13:53:53.455Z,7.97
2019-01-24T13:56:20.975Z,7.07
2019-01-24T13:58:48.248Z,6.73
2019-01-24T14:01:15.752Z,7.60
2019-01-24T14:03:50.536Z,6.60
2019-01-24T14:06:18.320Z,7.10
2019-01-24T14:08:45.880Z,6.63
2019-01-24T14:11:18.058Z,7.20
2019-01-24T14:13:42.395Z,7.27
2019-01-24T14:16:09.716Z,8.23
2019-01-24T14:18:37.516Z,6.90
2019-01-24T14:21:05.057Z,7.00
2019-01-24T14:23:32.509Z,7.00
2019-01-24T14:25:59.974Z,6.83
2019-01-24T14:28:27.459Z,7.67
2019-01-24T14:30:54.777Z,8.40
2019-01-24T14:33:22.642Z,7.03
2019-01-24T14:35:50.431Z,7.73
2019-01-24T14:38:18.211Z,7.67
2019-01-24T14:40:45.788Z,7.20
2019-01-24T14:43:13.338Z,8.00
2019-01-24T14:45:41.153Z,7.70
2019-01-24T14:48:08.675Z,7.90
2019-01-24T14:50:36.382Z,8.13
2019-01-24T14:53:03.895Z,8.07
2019-01-24T14:55:31.409Z,7.60
2019-01-24T14:57:58.756Z,7.00
2019-01-24T15:00:31.508Z,7.70
2019-01-24T15:02:58.971Z,7.50
2019-01-24T15:05:26.332Z,8.03
2019-01-24T15:07:53.598Z,7.90
2019-01-24T15:10:21.447Z,7.90
2019-01-24T15:12:48.742Z,10.23
2019-01-24T15:15:16.017Z,8.37
2019-01-24T15:17:43.320Z,8.20
2019-01-24T15:20:10.752Z,8.23
2019-01-24T15:22:38.088Z,7.47
2019-01-24T15:25:06.746Z,7.60
2019-01-24T15:27:34.101Z,7.03
2019-01-24T15:30:01.335Z,7.67
2019-01-24T15:32:28.655Z,8.03
2019-01-24T15:34:55.870Z,9.20
2019-01-24T15:37:23.361Z,9.97
2019-01-24T15:39:50.661Z,9.20
2019-01-24T15:42:18.002Z,9.60
2019-01-24T15:44:45.333Z,8.40
2019-01-24T15:47:12.672Z,8.20
2019-01-24T15:49:39.958Z,8.47
2019-01-24T15:52:07.227Z,8.03
2019-01-24T15:54:34.431Z,7.90
2019-01-24T15:57:01.729Z,8.47
2019-01-24T15:59:28.964Z,9.60
2019-01-24T16:01:56.265Z,9.17
2019-01-24T16:04:23.596Z,8.50
2019-01-24T16:06:50.965Z,8.57
2019-01-24T16:09:18.251Z,8.47
2019-01-24T16:11:45.497Z,8.43
2019-01-24T16:14:12.791Z,8.23
2019-01-24T16:16:40.038Z,8.27
2019-01-24T16:19:07.353Z,8.23
2019-01-24T16:21:34.671Z,7.70
2019-01-24T16:24:01.991Z,8.97
2019-01-24T16:26:29.248Z,8.70
2019-01-24T16:28:56.491Z,8.10
2019-01-24T16:31:23.797Z,8.60
2019-01-24T16:33:51.126Z,8.53
2019-01-24T16:36:18.332Z,8.07
2019-01-24T16:38:45.653Z,8.33
2019-01-24T16:41:12.953Z,8.63
2019-01-24T16:43:40.277Z,8.23
2019-01-24T16:46:07.612Z,9.10
2019-01-24T16:48:34.912Z,8.30
2019-01-24T16:51:02.239Z,7.90
2019-01-24T16:53:29.872Z,8.00
2019-01-24T16:55:57.187Z,7.73
2019-01-24T16:58:24.527Z,7.37
2019-01-24T17:01:11.848Z,8.30
2019-01-24T17:03:39.180Z,7.80
2019-01-24T17:06:06.491Z,7.40
2019-01-24T17:08:33.726Z,7.73
2019-01-24T17:11:00.983Z,8.07
2019-01-24T17:13:28.302Z,7.97
2019-01-24T17:15:55.633Z,7.67
2019-01-24T17:18:22.938Z,8.10
2019-01-24T17:20:50.256Z,8.47
2019-01-24T17:23:17.460Z,9.07
2019-01-24T17:25:44.797Z,7.93
2019-01-24T17:28:12.007Z,8.20
2019-01-24T17:30:39.353Z,8.60
2019-01-24T17:33:06.912Z,8.27
2019-01-24T17:35:34.144Z,7.77
2019-01-24T17:38:01.354Z,8.10
2019-01-24T17:40:29.636Z,8.37
2019-01-24T17:42:57.026Z,7.77
2019-01-24T17:45:24.400Z,7.77
2019-01-24T17:47:51.622Z,7.67
2019-01-24T17:50:18.977Z,9.10
2019-01-24T17:52:46.340Z,8.07
2019-01-24T17:55:17.858Z,8.60
2019-01-24T17:57:45.268Z,7.90
2019-01-24T18:00:18.336Z,8.83
2019-01-24T18:02:45.627Z,8.37
2019-01-24T18:05:13.061Z,8.07
2019-01-24T18:07:40.308Z,7.03
2019-01-24T18:10:14.190Z,6.37
2019-01-24T18:12:41.601Z,6.87
2019-01-24T18:15:12.187Z,6.10
2019-01-24T18:17:39.536Z,6.53
2019-01-24T18:20:18.074Z,6.00
2019-01-24T18:22:40.595Z,6.53
2019-01-24T18:25:07.920Z,5.43
2019-01-24T18:27:35.170Z,5.20
2019-01-24T18:30:03.547Z,5.40
2019-01-24T18:32:30.763Z,5.10
2019-01-24T18:34:58.162Z,5.53
2019-01-24T18:37:25.523Z,4.57
2019-01-24T18:39:52.831Z,4.90
2019-01-24T18:42:20.135Z,4.83
2019-01-24T18:44:47.380Z,4.20
2019-01-24T18:47:14.640Z,4.47
2019-01-24T18:49:42.270Z,4.33
2019-01-24T18:52:09.598Z,4.43
2019-01-24T18:54:37.023Z,4.23
2019-01-24T18:57:04.506Z,4.27
2019-01-24T18:59:31.748Z,4.80
2019-01-24T19:02:00.564Z,4.57
2019-01-24T19:04:28.036Z,3.80
2019-01-24T19:06:55.387Z,4.73
2019-01-24T19:09:22.606Z,4.27
2019-01-24T19:11:49.939Z,4.30
2019-01-24T19:14:19.225Z,4.50
2019-01-24T19:16:46.569Z,4.00
2019-01-24T19:19:13.868Z,3.67
2019-01-24T19:21:41.320Z,4.53
2019-01-24T19:24:08.721Z,3.93
2019-01-24T19:26:36.028Z,4.20
2019-01-24T19:29:03.372Z,4.00
2019-01-24T19:31:30.568Z,4.10
2019-01-24T19:33:57.922Z,3.93
2019-01-24T19:36:25.244Z,4.13
2019-01-24T19:38:53.189Z,4.90
2019-01-24T19:41:20.776Z,4.37
2019-01-24T19:43:48.143Z,4.20
2019-01-24T19:46:15.447Z,4.30
2019-01-24T19:48:42.717Z,4.00
2019-01-24T19:51:10.063Z,4.50
2019-01-24T19:53:37.483Z,4.67
2019-01-24T19:56:04.804Z,4.27
2019-01-24T19:58:32.096Z,4.97
2019-01-24T20:00:59.415Z,4.87
2019-01-24T20:03:26.732Z,4.30
2019-01-24T20:05:54.031Z,4.67
2019-01-24T20:08:21.294Z,4.50
2019-01-24T20:10:48.572Z,4.77
2019-01-24T20:13:15.975Z,4.93
2019-01-24T20:15:43.217Z,4.37
2019-01-24T20:18:10.528Z,4.97
2019-01-24T20:20:37.839Z,4.70
2019-01-24T20:23:05.079Z,4.87
2019-01-24T20:25:32.388Z,4.53
2019-01-24T20:27:59.721Z,4.77
2019-01-24T20:30:28.744Z,4.20
2019-01-24T20:32:56.677Z,4.83
2019-01-24T20:35:26.886Z,4.30
2019-01-24T20:37:54.172Z,4.53
2019-01-24T20:40:21.516Z,4.30
2019-01-24T20:42:48.853Z,4.70
2019-01-24T20:45:16.189Z,4.40
2019-01-24T20:47:43.499Z,3.97
2019-01-24T20:50:11.626Z,4.30
2019-01-24T20:52:39.039Z,4.20
2019-01-24T20:55:07.339Z,4.30
2019-01-24T20:57:34.618Z,3.80
2019-01-24T21:00:01.953Z,4.33
2019-01-24T21:02:29.210Z,4.10
2019-01-24T21:04:56.347Z,4.13
2019-01-24T21:07:23.483Z,4.07
2019-01-24T21:09:50.720Z,4.10
2019-01-24T21:12:17.948Z,3.80
2019-01-24T21:14:45.286Z,3.70
2019-01-24T21:17:12.632Z,3.40
2019-01-24T21:19:39.990Z,3.70
2019-01-24T21:22:07.580Z,3.70
2019-01-24T21:24:34.888Z,3.40
2019-01-24T21:27:02.229Z,3.10
2019-01-24T21:29:29.573Z,3.70
2019-01-24T21:31:56.954Z,3.20
2019-01-24T21:34:24.476Z,3.30
2019-01-24T21:36:51.933Z,3.63
2019-01-24T21:39:22.267Z,3.47
2019-01-24T21:41:48.544Z,3.20
2019-01-24T21:44:15.892Z,3.00
2019-01-24T21:46:43.103Z,3.17
2019-01-24T21:49:10.432Z,2.60
2019-01-24T21:51:37.866Z,2.73
2019-01-24T21:54:05.663Z,3.20
2019-01-24T21:56:33.002Z,2.93
2019-01-24T21:59:00.212Z,2.70
2019-01-24T22:01:27.555Z,3.20
2019-01-24T22:03:54.790Z,2.97
2019-01-24T22:06:22.031Z,3.17
2019-01-24T22:08:49.571Z,2.73
2019-01-24T22:11:16.775Z,2.90
2019-01-24T22:13:44.023Z,2.80
2019-01-24T22:16:11.340Z,2.90
2019-01-24T22:18:38.788Z,3.40
2019-01-24T22:21:05.995Z,3.63
2019-01-24T22:23:34.628Z,2.90
2019-01-24T22:26:01.971Z,3.20
2019-01-24T22:28:29.709Z,3.10
2019-01-24T22:30:59.926Z,2.90
2019-01-24T22:33:27.459Z,2.70
2019-01-24T22:35:54.878Z,3.30
2019-01-24T22:38:22.221Z,3.07
2019-01-24T22:40:49.535Z,2.63
2019-01-24T22:43:16.974Z,3.03
2019-01-24T22:45:44.212Z,3.00
2019-01-24T22:48:11.670Z,3.50
2019-01-24T22:50:38.880Z,3.67
2019-01-24T22:53:06.188Z,3.30
2019-01-24T22:55:33.762Z,3.10
2019-01-24T22:58:01.204Z,2.80
2019-01-24T23:01:01.029Z,2.87
2019-01-24T23:03:37.902Z,3.00
2019-01-24T23:06:05.320Z,3.30
2019-01-24T23:08:32.746Z,3.30
2019-01-24T23:11:00.086Z,3.03
2019-01-24T23:13:27.594Z,2.80
2019-01-24T23:15:54.811Z,3.30
2019-01-24T23:18:22.233Z,3.20
2019-01-24T23:20:49.536Z,3.03
2019-01-24T23:23:17.045Z,3.50
2019-01-24T23:25:44.431Z,3.20
2019-01-24T23:28:11.843Z,3.33
2019-01-24T23:30:39.206Z,3.27
2019-01-24T23:33:06.764Z,3.10
2019-01-24T23:35:34.375Z,3.10
2019-01-24T23:38:01.911Z,3.17
2019-01-24T23:40:29.369Z,3.23
2019-01-24T23:42:56.686Z,3.40
2019-01-24T23:45:23.971Z,3.07
2019-01-24T23:47:51.168Z,3.07
2019-01-24T23:50:18.431Z,3.20
2019-01-24T23:52:45.787Z,3.10
2019-01-24T23:55:13.091Z,2.93
2019-01-24T23:57:40.459Z,3.57
